createdAt,value
2022-08-21T00:01:40.048Z,13.27
2022-08-21T00:04:08.335Z,21.63
2022-08-21T00:06:36.184Z,16.83
2022-08-21T00:09:06.669Z,11.35
2022-08-21T00:11:37.823Z,11.57
2022-08-21T00:14:06.990Z,11.90
2022-08-21T00:16:33.625Z,12.15
2022-08-21T00:19:00.477Z,15.23
2022-08-21T00:21:27.156Z,9.38
2022-08-21T00:23:53.986Z,14.70
2022-08-21T00:26:20.593Z,14.82
2022-08-21T00:28:47.579Z,13.07
2022-08-21T00:31:14.123Z,18.02
2022-08-21T00:33:40.664Z,14.63
2022-08-21T00:36:07.558Z,11.52
2022-08-21T00:38:34.736Z,13.13
2022-08-21T00:41:29.827Z,13.63
2022-08-21T00:43:52.880Z,10.10
2022-08-21T00:46:19.631Z,20.20
2022-08-21T00:48:46.303Z,12.02
2022-08-21T00:51:26.724Z,14.77
2022-08-21T00:53:58.621Z,13.60
2022-08-21T00:56:26.789Z,12.18
2022-08-21T00:58:55.016Z,15.77
2022-08-21T01:01:22.530Z,13.75
2022-08-21T01:03:50.442Z,13.10
2022-08-21T01:06:17.386Z,16.98
2022-08-21T01:08:47.117Z,17.98
2022-08-21T01:11:18.090Z,15.57
2022-08-21T01:13:47.456Z,11.85
2022-08-21T01:16:17.844Z,12.57
2022-08-21T01:18:45.431Z,16.25
2022-08-21T01:21:16.447Z,12.65
2022-08-21T01:23:48.094Z,11.85
2022-08-21T01:26:17.221Z,12.05
2022-08-21T01:31:16.258Z,11.27
2022-08-21T01:33:43.502Z,17.25
2022-08-21T01:36:10.470Z,18.05
2022-08-21T01:38:37.009Z,23.00
2022-08-21T01:41:03.603Z,15.43
2022-08-21T01:43:32.411Z,11.98
2022-08-21T01:46:05.898Z,14.43
2022-08-21T01:48:32.832Z,15.35
2022-08-21T01:51:00.300Z,13.57
2022-08-21T01:53:28.505Z,13.43
2022-08-21T01:56:00.254Z,18.13
2022-08-21T01:58:26.900Z,14.20
2022-08-21T02:00:53.537Z,11.48
2022-08-21T02:03:26.371Z,17.02
2022-08-21T02:06:03.384Z,18.48
2022-08-21T02:08:29.960Z,11.13
2022-08-21T02:10:56.498Z,9.20
2022-08-21T02:13:23.088Z,12.65
2022-08-21T02:15:49.748Z,14.00
2022-08-21T02:18:16.737Z,10.93
2022-08-21T02:20:48.231Z,13.85
2022-08-21T02:23:15.893Z,14.77
2022-08-21T02:25:43.207Z,14.38
2022-08-21T02:28:13.781Z,13.63
2022-08-21T02:30:48.231Z,14.90
2022-08-21T02:33:16.209Z,13.60
2022-08-21T02:35:44.587Z,11.57
2022-08-21T02:38:14.893Z,13.85
2022-08-21T02:40:48.185Z,13.90
2022-08-21T02:43:16.532Z,22.38
2022-08-21T02:45:44.226Z,17.23
2022-08-21T02:48:13.476Z,16.90
2022-08-21T02:50:52.259Z,15.82
2022-08-21T02:53:19.104Z,14.30
2022-08-21T02:55:48.278Z,18.17
2022-08-21T02:58:17.553Z,15.43
2022-08-21T03:00:44.959Z,13.55
2022-08-21T03:03:11.702Z,17.10
2022-08-21T03:05:38.714Z,13.82
2022-08-21T03:08:12.079Z,14.27
2022-08-21T03:10:40.924Z,11.35
2022-08-21T03:13:08.267Z,16.08
2022-08-21T03:15:35.001Z,11.82
2022-08-21T03:18:02.152Z,11.02
2022-08-21T03:20:29.800Z,15.63
2022-08-21T03:22:56.770Z,13.40
2022-08-21T03:25:39.990Z,9.48
2022-08-21T03:28:12.862Z,15.10
2022-08-21T03:30:48.092Z,16.48
2022-08-21T03:33:15.780Z,15.55
2022-08-21T03:35:49.925Z,16.30
2022-08-21T03:38:16.523Z,11.93
2022-08-21T03:40:44.239Z,13.75
2022-08-21T03:43:11.185Z,19.23
2022-08-21T03:45:38.856Z,13.30
2022-08-21T03:48:07.847Z,14.15
2022-08-21T03:50:41.243Z,14.32
2022-08-21T03:53:17.324Z,16.55
2022-08-21T03:55:49.830Z,13.82
2022-08-21T03:58:18.087Z,16.65
2022-08-21T04:00:49.937Z,14.73
2022-08-21T04:03:16.869Z,16.08
2022-08-21T04:05:46.212Z,17.88
2022-08-21T04:08:13.404Z,13.07
2022-08-21T04:10:41.118Z,13.65
2022-08-21T04:13:08.736Z,11.95
2022-08-21T04:15:36.022Z,15.73
2022-08-21T04:18:04.588Z,15.50
2022-08-21T04:20:31.182Z,12.02
2022-08-21T04:22:57.817Z,12.85
2022-08-21T04:25:26.511Z,16.20
2022-08-21T04:27:53.982Z,13.32
2022-08-21T04:30:20.898Z,16.25
2022-08-21T04:32:50.150Z,16.45
2022-08-21T04:35:19.776Z,19.50
2022-08-21T04:37:46.329Z,20.55
2022-08-21T04:40:15.363Z,17.58
2022-08-21T04:45:38.293Z,14.35
2022-08-21T04:48:13.727Z,13.35
2022-08-21T04:50:45.954Z,15.90
2022-08-21T04:53:20.723Z,14.38
2022-08-21T04:55:48.090Z,12.10
2022-08-21T04:58:18.527Z,13.00
2022-08-21T05:00:46.910Z,19.88
2022-08-21T05:03:17.531Z,19.27
2022-08-21T05:05:44.652Z,14.63
2022-08-21T05:08:15.449Z,14.85
2022-08-21T05:10:43.444Z,18.30
2022-08-21T05:13:10.904Z,17.90
2022-08-21T05:15:38.432Z,19.20
2022-08-21T05:18:05.030Z,18.58
2022-08-21T05:20:31.568Z,13.57
2022-08-21T05:22:58.782Z,19.92
2022-08-21T05:25:26.147Z,15.65
2022-08-21T05:27:54.846Z,15.52
2022-08-21T05:30:21.669Z,19.80
2022-08-21T05:32:48.823Z,18.40
2022-08-21T05:35:16.134Z,19.60
2022-08-21T05:37:42.686Z,22.30
2022-08-21T05:40:22.777Z,17.33
2022-08-21T05:42:54.594Z,19.33
2022-08-21T05:45:41.718Z,19.48
2022-08-21T05:48:11.693Z,14.93
2022-08-21T05:50:39.885Z,16.95
2022-08-21T05:53:08.004Z,22.83
2022-08-21T05:55:34.778Z,18.60
2022-08-21T05:58:01.717Z,17.55
2022-08-21T06:00:28.427Z,19.58
2022-08-21T06:02:55.184Z,16.75
2022-08-21T06:05:36.945Z,13.65
2022-08-21T06:08:04.925Z,15.45
2022-08-21T06:10:32.222Z,19.48
2022-08-21T06:12:59.020Z,25.05
2022-08-21T06:15:25.716Z,19.65
2022-08-21T06:17:54.342Z,17.23
2022-08-21T06:20:21.096Z,23.23
2022-08-21T06:22:47.903Z,22.35
2022-08-21T06:25:14.614Z,25.45
2022-08-21T06:27:41.181Z,22.67
2022-08-21T06:30:08.451Z,18.70
2022-08-21T06:32:35.715Z,19.83
2022-08-21T06:35:02.260Z,21.33
2022-08-21T06:37:29.073Z,25.15
2022-08-21T06:39:55.704Z,22.23
2022-08-21T06:42:22.406Z,23.60
2022-08-21T06:44:54.786Z,22.98
2022-08-21T06:47:21.294Z,25.77
2022-08-21T06:49:47.899Z,26.23
2022-08-21T06:52:15.228Z,27.48
2022-08-21T06:54:42.504Z,32.55
2022-08-21T06:57:09.131Z,26.35
2022-08-21T06:59:35.997Z,27.88
2022-08-21T07:02:02.763Z,25.63
2022-08-21T07:04:29.330Z,28.35
2022-08-21T07:06:55.943Z,26.95
2022-08-21T07:09:24.842Z,27.27
2022-08-21T07:11:54.674Z,31.40
2022-08-21T07:14:21.784Z,24.50
2022-08-21T07:16:49.571Z,29.17
2022-08-21T07:19:16.149Z,26.50
2022-08-21T07:21:42.744Z,26.58
2022-08-21T07:24:09.963Z,25.38
2022-08-21T07:26:36.488Z,22.92
2022-08-21T07:29:03.777Z,25.85
2022-08-21T07:31:30.451Z,26.17
2022-08-21T07:33:57.030Z,28.95
2022-08-21T07:36:23.688Z,24.55
2022-08-21T07:38:52.766Z,34.25
2022-08-21T07:41:23.531Z,30.30
2022-08-21T07:43:52.798Z,26.85
2022-08-21T07:46:20.629Z,28.63
2022-08-21T07:48:47.526Z,23.23
2022-08-21T07:51:16.378Z,24.92
2022-08-21T07:56:12.009Z,28.20
2022-08-21T07:58:38.818Z,30.35
2022-08-21T08:01:07.432Z,23.15
2022-08-21T08:03:34.320Z,21.80
2022-08-21T08:06:00.935Z,19.10
2022-08-21T08:08:28.566Z,23.70
2022-08-21T08:10:58.156Z,24.13
2022-08-21T08:13:25.502Z,24.55
2022-08-21T08:15:52.371Z,24.75
2022-08-21T08:18:19.132Z,33.25
2022-08-21T08:20:45.917Z,27.55
2022-08-21T08:23:13.874Z,27.58
2022-08-21T08:25:40.534Z,24.70
2022-08-21T08:28:16.955Z,19.85
2022-08-21T08:30:45.630Z,25.17
2022-08-21T08:33:12.557Z,26.52
2022-08-21T08:35:39.750Z,25.70
2022-08-21T08:38:06.749Z,29.15
2022-08-21T08:40:52.842Z,29.50
2022-08-21T08:43:20.170Z,28.20
2022-08-21T08:45:54.469Z,29.52
2022-08-21T08:48:53.039Z,22.13
2022-08-21T08:51:46.577Z,24.60
2022-08-21T08:54:18.997Z,28.40
2022-08-21T08:56:46.224Z,25.48
2022-08-21T08:59:19.014Z,22.30
2022-08-21T09:01:45.969Z,30.25
2022-08-21T09:04:14.550Z,20.42
2022-08-21T09:07:10.178Z,25.10
2022-08-21T09:09:39.648Z,20.52
2022-08-21T09:12:26.183Z,29.95
2022-08-21T09:15:23.043Z,26.48
2022-08-21T09:18:02.138Z,22.17
2022-08-21T09:20:49.400Z,21.30
2022-08-21T09:23:32.283Z,23.25
2022-08-21T09:26:07.597Z,23.48
2022-08-21T09:28:37.745Z,27.08
2022-08-21T09:31:12.792Z,31.33
2022-08-21T09:33:39.361Z,26.52
2022-08-21T09:36:06.172Z,26.25
2022-08-21T09:38:37.696Z,18.65
2022-08-21T09:41:09.890Z,25.02
2022-08-21T09:43:37.948Z,28.58
2022-08-21T09:46:13.630Z,26.20
2022-08-21T09:48:46.834Z,24.55
2022-08-21T09:51:18.525Z,26.05
2022-08-21T09:53:50.128Z,21.83
2022-08-21T09:56:47.202Z,21.65
2022-08-21T09:59:21.122Z,21.40
2022-08-21T10:01:54.799Z,19.67
2022-08-21T10:04:24.719Z,23.70
2022-08-21T10:06:51.388Z,22.70
2022-08-21T10:09:21.799Z,21.48
2022-08-21T10:11:57.363Z,26.38
2022-08-21T10:14:47.919Z,22.55
2022-08-21T10:17:29.473Z,26.48
2022-08-21T10:20:12.058Z,28.73
2022-08-21T10:22:57.647Z,22.88
2022-08-21T10:25:31.274Z,24.27
2022-08-21T10:28:45.100Z,28.38
2022-08-21T10:31:28.495Z,25.52
2022-08-21T10:34:19.422Z,30.90
2022-08-21T10:37:10.721Z,27.02
2022-08-21T10:40:16.738Z,28.40
2022-08-21T10:42:49.485Z,33.53
2022-08-21T10:45:48.681Z,29.20
2022-08-21T10:48:35.454Z,33.63
2022-08-21T10:51:40.596Z,32.00
2022-08-21T10:54:39.102Z,41.00
2022-08-21T10:57:31.980Z,28.55
2022-08-21T11:00:14.130Z,28.05
2022-08-21T11:02:43.388Z,35.40
2022-08-21T11:05:18.353Z,30.02
2022-08-21T11:07:52.652Z,27.13
2022-08-21T11:10:25.999Z,31.67
2022-08-21T11:13:00.097Z,34.08
2022-08-21T11:15:35.900Z,36.33
2022-08-21T11:18:24.346Z,29.90
2022-08-21T11:21:02.320Z,24.88
2022-08-21T11:23:58.503Z,31.60
2022-08-21T11:26:39.225Z,30.23
2022-08-21T11:29:17.560Z,32.88
2022-08-21T11:31:56.367Z,27.35
2022-08-21T11:37:21.108Z,26.40
2022-08-21T11:40:09.936Z,31.73
2022-08-21T11:42:52.296Z,33.28
2022-08-21T11:45:46.479Z,27.80
2022-08-21T11:48:24.455Z,29.58
2022-08-21T11:50:52.691Z,28.13
2022-08-21T11:53:27.157Z,28.67
2022-08-21T11:55:58.086Z,24.05
2022-08-21T11:58:47.730Z,31.33
2022-08-21T12:01:20.822Z,28.33
2022-08-21T12:03:57.946Z,35.20
2022-08-21T12:06:34.146Z,31.05
2022-08-21T12:09:08.702Z,51.10
2022-08-21T12:11:51.001Z,30.40
2022-08-21T12:14:20.326Z,24.05
2022-08-21T12:16:50.409Z,31.63
2022-08-21T12:19:25.890Z,31.13
2022-08-21T12:21:58.244Z,25.48
2022-08-21T12:24:27.871Z,26.08
2022-08-21T12:27:14.263Z,34.42
2022-08-21T12:29:48.156Z,33.42
2022-08-21T12:32:14.653Z,26.35
2022-08-21T12:34:49.437Z,28.40
2022-08-21T12:37:23.521Z,26.10
2022-08-21T12:39:53.422Z,25.17
2022-08-21T12:42:24.615Z,31.70
2022-08-21T12:44:56.224Z,23.60
2022-08-21T12:47:32.844Z,21.92
2022-08-21T12:50:14.014Z,24.50
2022-08-21T12:52:57.032Z,23.77
2022-08-21T12:55:32.844Z,27.67
2022-08-21T12:57:59.936Z,23.92
2022-08-21T13:00:30.476Z,23.08
2022-08-21T13:02:58.326Z,25.73
2022-08-21T13:05:34.507Z,21.30
2022-08-21T13:08:05.790Z,27.98
2022-08-21T13:10:35.007Z,35.80
2022-08-21T13:13:12.739Z,18.63
2022-08-21T13:15:41.990Z,22.40
2022-08-21T13:18:28.576Z,23.02
2022-08-21T13:21:12.098Z,22.45
2022-08-21T13:23:38.844Z,28.77
2022-08-21T13:26:18.387Z,26.80
2022-08-21T13:28:48.531Z,21.42
2022-08-21T13:31:23.164Z,20.02
2022-08-21T13:33:51.418Z,24.55
2022-08-21T13:36:25.246Z,27.45
2022-08-21T13:38:53.786Z,25.35
2022-08-21T13:41:26.826Z,21.60
2022-08-21T13:44:18.432Z,20.73
2022-08-21T13:46:48.926Z,20.13
2022-08-21T13:49:19.548Z,23.15
2022-08-21T13:51:47.724Z,24.15
2022-08-21T13:54:21.376Z,21.58
2022-08-21T13:56:48.172Z,19.08
2022-08-21T13:59:27.288Z,22.13
2022-08-21T14:02:00.035Z,23.48
2022-08-21T14:04:57.691Z,26.35
2022-08-21T14:07:37.924Z,20.80
2022-08-21T14:10:12.619Z,21.38
2022-08-21T14:12:44.406Z,20.80
2022-08-21T14:15:15.470Z,22.30
2022-08-21T14:17:43.325Z,22.45
2022-08-21T14:20:13.207Z,28.70
2022-08-21T14:22:42.118Z,25.20
2022-08-21T14:25:11.776Z,20.40
2022-08-21T14:27:45.688Z,22.92
2022-08-21T14:30:27.044Z,22.33
2022-08-21T14:32:54.240Z,21.25
2022-08-21T14:35:23.799Z,17.88
2022-08-21T14:37:51.538Z,26.70
2022-08-21T14:40:19.743Z,27.10
2022-08-21T14:42:47.543Z,25.20
2022-08-21T14:45:24.408Z,25.98
2022-08-21T14:47:53.937Z,20.98
2022-08-21T14:50:20.800Z,31.00
2022-08-21T14:52:47.409Z,25.92
2022-08-21T14:55:15.338Z,26.35
2022-08-21T14:57:45.664Z,34.78
2022-08-21T15:00:14.766Z,24.35
2022-08-21T15:02:41.294Z,25.15
2022-08-21T15:05:08.067Z,26.92
2022-08-21T15:07:34.600Z,27.40
2022-08-21T15:10:01.194Z,26.27
2022-08-21T15:12:28.221Z,26.13
2022-08-21T15:14:54.990Z,23.50
2022-08-21T15:17:21.609Z,25.77
2022-08-21T15:19:48.312Z,28.33
2022-08-21T15:22:18.556Z,25.98
2022-08-21T15:24:54.130Z,33.72
2022-08-21T15:27:20.766Z,24.85
2022-08-21T15:29:47.530Z,27.52
2022-08-21T15:32:23.991Z,26.13
2022-08-21T15:34:52.192Z,27.80
2022-08-21T15:37:19.759Z,29.08
2022-08-21T15:39:51.088Z,32.45
2022-08-21T15:42:20.714Z,27.73
2022-08-21T15:44:48.693Z,29.92
2022-08-21T15:47:26.229Z,32.17
2022-08-21T15:49:52.849Z,33.33
2022-08-21T15:52:22.163Z,36.65
2022-08-21T15:54:49.251Z,31.27
2022-08-21T15:57:21.137Z,30.63
2022-08-21T15:59:54.496Z,33.88
2022-08-21T16:02:28.762Z,27.60
2022-08-21T16:04:55.494Z,32.10
2022-08-21T16:07:22.070Z,33.05
2022-08-21T16:09:48.606Z,35.78
2022-08-21T16:12:23.543Z,31.05
2022-08-21T16:14:51.951Z,32.97
2022-08-21T16:17:19.232Z,31.23
2022-08-21T16:19:46.410Z,34.63
2022-08-21T16:22:12.959Z,33.53
2022-08-21T16:24:39.512Z,30.70
2022-08-21T16:27:08.003Z,33.70
2022-08-21T16:29:37.425Z,32.33
2022-08-21T16:32:05.868Z,26.27
2022-08-21T16:34:32.646Z,28.15
2022-08-21T16:36:59.270Z,23.00
2022-08-21T16:39:26.050Z,20.55
2022-08-21T16:41:52.703Z,24.75
2022-08-21T16:44:21.874Z,23.27
2022-08-21T16:46:48.991Z,23.23
2022-08-21T16:49:15.649Z,19.98
2022-08-21T16:51:43.433Z,20.25
2022-08-21T16:54:10.788Z,20.08
2022-08-21T16:56:40.043Z,18.08
2022-08-21T16:59:07.696Z,23.70
2022-08-21T17:01:36.576Z,21.55
2022-08-21T17:06:31.285Z,17.17
2022-08-21T17:08:59.315Z,13.38
2022-08-21T17:11:37.280Z,14.63
2022-08-21T17:14:15.104Z,11.25
2022-08-21T17:16:46.081Z,13.65
2022-08-21T17:19:13.437Z,18.15
2022-08-21T17:21:40.146Z,26.67
2022-08-21T17:24:06.727Z,18.05
2022-08-21T17:26:33.613Z,19.27
2022-08-21T17:29:00.711Z,18.83
2022-08-21T17:31:28.004Z,27.40
2022-08-21T17:33:54.660Z,17.60
2022-08-21T17:36:29.491Z,14.80
2022-08-21T17:38:57.203Z,20.33
2022-08-21T17:41:24.162Z,21.35
2022-08-21T17:43:51.657Z,24.70
2022-08-21T17:46:24.810Z,17.90
2022-08-21T17:48:51.535Z,18.83
2022-08-21T17:51:18.541Z,22.17
2022-08-21T17:53:45.395Z,22.40
2022-08-21T17:56:15.161Z,27.92
2022-08-21T17:58:49.565Z,26.42
2022-08-21T18:01:17.469Z,23.13
2022-08-21T18:03:47.115Z,20.13
2022-08-21T18:06:17.427Z,19.50
2022-08-21T18:08:44.902Z,18.42
2022-08-21T18:11:11.657Z,24.95
2022-08-21T18:13:51.980Z,19.00
2022-08-21T18:16:19.579Z,19.30
2022-08-21T18:18:49.099Z,17.33
2022-08-21T18:21:15.839Z,22.83
2022-08-21T18:23:44.320Z,20.58
2022-08-21T18:26:14.693Z,18.10
2022-08-21T18:28:42.284Z,19.08
2022-08-21T18:31:11.781Z,15.80
2022-08-21T18:33:43.723Z,17.23
2022-08-21T18:36:25.354Z,18.45
2022-08-21T18:38:52.819Z,17.92
2022-08-21T18:41:19.446Z,12.63
2022-08-21T18:43:46.164Z,16.83
2022-08-21T18:46:12.834Z,20.63
2022-08-21T18:48:40.484Z,20.05
2022-08-21T18:51:07.107Z,17.60
2022-08-21T18:53:33.821Z,12.52
2022-08-21T18:56:05.448Z,19.33
2022-08-21T18:58:33.309Z,16.30
2022-08-21T19:01:00.088Z,14.70
2022-08-21T19:03:26.894Z,13.10
2022-08-21T19:05:54.836Z,11.50
2022-08-21T19:08:23.840Z,12.57
2022-08-21T19:10:55.378Z,11.10
2022-08-21T19:13:22.912Z,13.25
2022-08-21T19:15:53.032Z,13.65
2022-08-21T19:18:27.870Z,14.65
2022-08-21T19:20:55.437Z,11.55
2022-08-21T19:26:12.132Z,13.80
2022-08-21T19:28:45.967Z,11.43
2022-08-21T19:31:25.250Z,11.02
2022-08-21T19:34:01.489Z,7.90
2022-08-21T19:36:29.057Z,10.25
2022-08-21T19:38:55.771Z,9.45
2022-08-21T19:41:25.158Z,13.02
2022-08-21T19:43:54.669Z,7.55
2022-08-21T19:46:28.514Z,9.05
2022-08-21T19:48:55.830Z,7.38
2022-08-21T19:51:23.317Z,7.95
2022-08-21T19:53:56.916Z,11.30
2022-08-21T19:56:26.152Z,7.22
2022-08-21T20:01:22.071Z,8.70
2022-08-21T20:03:53.708Z,11.10
2022-08-21T20:06:22.091Z,12.27
2022-08-21T20:08:51.494Z,7.07
2022-08-21T20:11:26.621Z,7.88
2022-08-21T20:13:54.340Z,8.70
2022-08-21T20:16:21.626Z,8.70
2022-08-21T20:18:49.025Z,8.23
2022-08-21T20:21:18.660Z,10.48
2022-08-21T20:23:48.835Z,7.57
2022-08-21T20:26:16.595Z,11.88
2022-08-21T20:28:43.612Z,10.95
2022-08-21T20:31:10.665Z,10.93
2022-08-21T20:33:37.985Z,13.57
2022-08-21T20:36:04.932Z,9.90
2022-08-21T20:38:31.798Z,8.75
2022-08-21T20:40:59.504Z,7.95
2022-08-21T20:43:26.790Z,8.07
2022-08-21T20:45:55.284Z,10.35
2022-08-21T20:48:49.319Z,9.52
2022-08-21T20:51:35.952Z,10.70
2022-08-21T20:54:14.838Z,6.18
2022-08-21T20:57:00.002Z,6.25
2022-08-21T20:59:32.946Z,8.63
2022-08-21T21:02:15.951Z,6.68
2022-08-21T21:04:47.379Z,7.05
2022-08-21T21:07:21.387Z,5.60
2022-08-21T21:09:53.779Z,7.75
2022-08-21T21:12:28.163Z,5.93
2022-08-21T21:15:00.413Z,6.80
2022-08-21T21:17:47.606Z,6.05
2022-08-21T21:20:21.461Z,5.80
2022-08-21T21:22:57.593Z,5.93
2022-08-21T21:25:40.110Z,5.88
2022-08-21T21:28:13.013Z,9.57
2022-08-21T21:30:46.507Z,5.82
2022-08-21T21:33:16.486Z,5.25
2022-08-21T21:35:51.466Z,8.48
2022-08-21T21:38:51.494Z,7.95
2022-08-21T21:41:47.064Z,6.53
2022-08-21T21:44:35.410Z,6.10
2022-08-21T21:47:13.553Z,6.10
2022-08-21T21:49:50.214Z,6.13
2022-08-21T21:52:38.203Z,6.95
2022-08-21T21:55:42.889Z,6.73
2022-08-21T21:58:57.033Z,7.03
2022-08-21T22:01:34.252Z,6.93
2022-08-21T22:04:03.953Z,8.10
2022-08-21T22:06:55.881Z,10.27
2022-08-21T22:09:37.710Z,6.63
2022-08-21T22:12:29.912Z,9.27
2022-08-21T22:14:57.356Z,6.45
2022-08-21T22:17:41.124Z,7.00
2022-08-21T22:20:15.235Z,6.78
2022-08-21T22:23:01.089Z,7.28
2022-08-21T22:25:33.341Z,7.57
2022-08-21T22:28:15.859Z,8.68
2022-08-21T22:31:14.719Z,6.95
2022-08-21T22:34:05.386Z,7.20
2022-08-21T22:36:38.200Z,14.43
2022-08-21T22:39:08.363Z,9.30
2022-08-21T22:41:41.221Z,9.60
2022-08-21T22:44:18.195Z,5.93
2022-08-21T22:46:56.135Z,7.25
2022-08-21T22:49:34.130Z,6.23
2022-08-21T22:52:31.859Z,9.32
2022-08-21T22:55:04.231Z,5.35
2022-08-21T22:57:34.316Z,7.45
2022-08-21T23:00:11.011Z,7.32
2022-08-21T23:02:58.614Z,6.90
2022-08-21T23:05:36.566Z,9.88
2022-08-21T23:08:24.177Z,11.50
2022-08-21T23:10:57.449Z,10.90
2022-08-21T23:13:24.024Z,10.15
2022-08-21T23:16:05.747Z,8.95
2022-08-21T23:18:42.859Z,7.70
2022-08-21T23:21:15.529Z,7.38
2022-08-21T23:24:02.587Z,8.82
2022-08-21T23:26:46.953Z,8.20
2022-08-21T23:29:47.699Z,11.38
2022-08-21T23:32:39.188Z,7.57
2022-08-21T23:35:51.903Z,8.00
2022-08-21T23:38:50.899Z,7.57
2022-08-21T23:41:42.743Z,8.88
2022-08-21T23:44:25.672Z,11.52
2022-08-21T23:47:30.028Z,10.38
2022-08-21T23:53:36.187Z,10.63
2022-08-21T23:56:14.242Z,8.88
2022-08-21T23:59:34.911Z,11.43
